Observations for BARCELONA AIRPORT, Spain (LEBL)

LEBL 202000Z 28005KT 250V320 CAVOK 10/06 Q1027 NOSIG
LEBL 201930Z 24004KT 220V300 CAVOK 10/06 Q1026 NOSIG
LEBL 201900Z 21005KT CAVOK 12/06 Q1026 NOSIG
LEBL 201830Z 21005KT CAVOK 12/06 Q1026 NOSIG
LEBL 201800Z 20004KT CAVOK 12/06 Q1026 NOSIG
LEBL 201730Z 19004KT CAVOK 13/06 Q1026 NOSIG
LEBL 201700Z 19005KT 150V210 CAVOK 13/06 Q1025 NOSIG
LEBL 201630Z 19007KT CAVOK 14/06 Q1025 NOSIG
LEBL 201600Z 18007KT 150V210 CAVOK 14/06 Q1025 NOSIG
LEBL 201530Z 17008KT 140V210 9999 FEW035 14/06 Q1025 NOSIG  
LEBL 201500Z 17007KT 130V200 9999 FEW030 14/04 Q1025 NOSIG  
LEBL 201430Z 17007KT 130V210 9999 FEW040 14/05 Q1025 NOSIG  
LEBL 201400Z 17007KT 140V200 9999 FEW040 14/04 Q1025 NOSIG  
LEBL 201330Z 16006KT 120V210 9999 FEW043 15/04 Q1025 NOSIG  
LEBL 201300Z 18006KT 150V210 9999 SCT044 14/03 Q1025 NOSIG  
LEBL 201230Z 18006KT 150V220 9999 FEW030 BKN045 14/03 Q1025 NOSIG   
LEBL 201200Z 19005KT 130V220 9999 FEW030 BKN045 15/03 Q1026 NOSIG   
LEBL 201130Z 18003KT 9999 FEW025 BKN046 15/04 Q1026 NOSIG   
LEBL 201100Z 29001KT 9999 FEW020 BKN043 15/04 Q1026 NOSIG   
LEBL 201030Z 31004KT 9999 FEW020 BKN043 15/04 Q1026 NOSIG   
LEBL 201000Z VRB02KT 9999 FEW020 BKN044 13/07 Q1025 NOSIG   
LEBL 200930Z 32004KT 290V350 9999 FEW030 BKN046 12/07 Q1025 NOSIG   
LEBL 200900Z 33005KT 280V360 9999 BKN045 12/07 Q1025 NOSIG  
LEBL 200830Z 33006KT 250V350 9999 FEW025 BKN045 11/07 Q1025 NOSIG   
LEBL 200800Z 33006KT 270V010 9999 FEW025 BKN044 10/06 Q1024 NOSIG   
LEBL 200730Z 33006KT 9999 FEW025 BKN044 10/06 Q1024 NOSIG   
LEBL 200700Z 33006KT 300V010 9999 FEW025 BKN044 10/06 Q1024 NOSIG   
LEBL 200630Z 33003KT 290V360 9999 FEW025 BKN042 09/06 Q1023 NOSIG   
LEBL 200600Z 33003KT 9999 FEW022 BKN042 10/06 Q1023 NOSIG   
LEBL 200530Z 32004KT 9999 FEW022 BKN043 10/06 Q1023 NOSIG   
LEBL 200500Z 33005KT 9999 FEW022 BKN043 10/07 Q1023 NOSIG   
LEBL 200430Z 32005KT 9999 FEW022 BKN044 10/07 Q1023 NOSIG   
LEBL 200400Z 33006KT 9999 FEW022 BKN044 10/07 Q1023 NOSIG   
LEBL 200330Z 33006KT 9999 FEW018 BKN044 10/07 Q1023 NOSIG   
LEBL 200300Z 33004KT 9999 FEW018 BKN044 10/07 Q1023 NOSIG   
LEBL 200230Z 01002KT 9999 FEW018 BKN042 10/07 Q1023 NOSIG   
LEBL 200200Z 33004KT 9999 FEW018 BKN040 10/07 Q1024 NOSIG   
LEBL 200130Z 32004KT 9999 FEW018 BKN043 10/07 Q1024 NOSIG   
LEBL 200100Z VRB02KT 9999 FEW018 BKN042 10/07 Q1024 NOSIG   
LEBL 200030Z VRB01KT 9999 FEW015 BKN037 10/07 Q1024 NOSIG   
LEBL 200000Z 30004KT 9999 FEW025 BKN037 10/07 Q1023 NOSIG   
LEBL 192330Z 32003KT 9999 FEW025 BKN038 10/07 Q1023 NOSIG   
LEBL 192300Z 31004KT 9999 FEW023 BKN038 10/07 Q1023 NOSIG   
LEBL 192230Z 31004KT 9999 FEW022 BKN039 10/07 Q1023 NOSIG   
LEBL 192200Z 30004KT 9999 FEW022 BKN040 09/07 Q1023 NOSIG   
LEBL 192130Z 31003KT 270V340 9999 FEW022 SCT040 09/07 Q1023 NOSIG   
LEBL 192100Z 00000KT 9999 FEW015 SCT040 09/06 Q1023 NOSIG   
LEBL 192030Z VRB01KT 9999 FEW040 12/08 Q1023 NOSIG  
LEBL 192000Z 12003KT 090V150 9999 FEW045 12/08 Q1022 NOSIG  
LEBL 191930Z 12003KT 9999 FEW045 12/08 Q1022 NOSIG